Celebrity Infinity — 9HJD9 — position and weather

sailwx.info

Track history (hours):
 
Tides and Currents Weather Stations Pressure Air Temp Water Temp Dewpoint Dewpoint Depression Visibility Wind Speed Wind Dir Waves Ship Positions

Celebrity Infinity

Last reported at 2015-Jul-30 10:34 UTC. Time now 2015-Aug-01 01:30 UTC.
Position N 58°19' W 134°59'.

Length 294 m; draft 8.3 m.

Type: Passenger vessel. MMSI: 249048000.

Date/timePositionNaut miles runAvg speedWind from/ knotsBaromVisibWave heightAir tempDewpointWater temp
2015-Jul-30 10:34N 58°19' W 134°59'1211.8
2015-Jul-30 09:34N 58°09' W 135°13'1515.1
2015-Jul-30 08:34N 58°16' W 135°38'1814.8
2015-Jul-30 07:21N 58°16' W 136°12'6 0.2
2015-Jul-29 07:33N 58°20' W 136°05'1918.8
2015-Jul-29 06:33N 58°14' W 135°31'6 0.6
2015-Jul-28 21:33N 58°09' W 135°28'1111.4
2015-Jul-28 20:33N 58°07' W 135°07'1514.4
2015-Jul-28 19:31N 57°54' W 134°51'47315.3
2015-Jul-27 12:29N 51°02' W 128°11'1617.4
2015-Jul-27 11:33N 50°58' W 127°46'1918.5
2015-Jul-27 10:33N 50°48' W 127°21'1919.2
2015-Jul-27 09:33N 50°41' W 126°53'6416.1
2015-Jul-27 05:33N 50°13' W 125°22'1413.4
2015-Jul-27 04:32N 50°01' W 125°12'2019.9
2015-Jul-27 03:33N 49°47' W 124°51'2121.4
2015-Jul-27 02:34N 49°30' W 124°30'2120.8
2015-Jul-27 01:34N 49°23' W 123°60'2120.9
2015-Jul-27 00:34N 49°19' W 123°28'1514.6
2015-Jul-26 23:33N 49°18' W 123°06'1 0.6
2015-Jul-26 22:32N 49°17' W 123°07'0 0.0
2015-Jul-26 21:31N 49°17' W 123°07'0 0.0
2015-Jul-26 20:31N 49°17' W 123°07'0 0.0
2015-Jul-26 19:33N 49°17' W 123°07'0 0.0
2015-Jul-26 18:33N 49°17' W 123°07'0 0.0
2015-Jul-26 17:33N 49°17' W 123°07'0 0.0
2015-Jul-26 16:32N 49°17' W 123°07'0 0.0
2015-Jul-26 15:32N 49°17' W 123°07'0 0.0
2015-Jul-26 14:31N 49°17' W 123°07'0 0.0
2015-Jul-26 13:33N 49°17' W 123°07'6 5.9
2015-Jul-26 12:33N 49°18' W 123°16'1211.7
2015-Jul-26 11:33N 49°19' W 123°33'1212.0
2015-Jul-26 10:33N 49°20' W 123°52'1212.4
2015-Jul-26 09:33N 49°23' W 124°10'1312.5
2015-Jul-26 08:33N 49°29' W 124°28'1312.7
2015-Jul-26 07:33N 49°38' W 124°40'1312.6
2015-Jul-26 06:32N 49°47' W 124°54'1212.5
2015-Jul-26 05:33N 49°56' W 125°07'1413.2
2015-Jul-26 04:31N 50°07' W 125°20'6615.0
2015-Jul-26 00:06N 50°39' W 126°50'1118.4
2015-Jul-25 23:32N 50°44' W 127°05'1717.9
2015-Jul-25 22:34N 50°51' W 127°31'1919.2
2015-Jul-25 21:33N 51°02' W 127°55'47111.8
2015-Jul-24 05:34N 58°02' W 134°03'40 2.0
2015-Jul-23 10:00N 58°06' W 135°18'711.4 090 / 131007.210.8 1.514.0 13.6
2015-Jul-23 09:20N 58°12' W 135°26'1316.7
2015-Jul-23 08:33N 58°18' W 135°48'9 0.3
2015-Jul-22 07:33N 58°20' W 136°04'2020.0
2015-Jul-22 06:33N 58°14' W 135°28'5 0.5
2015-Jul-21 21:07N 58°10' W 135°22'49817.2
2015-Jul-20 16:12N 51°01' W 128°05'1218.3
2015-Jul-20 15:33N 50°59' W 127°46'1818.4
2015-Jul-20 14:34N 50°49' W 127°23'2120.8
2015-Jul-20 13:32N 50°40' W 126°51'  
Track history (hours):
 
Tides and Currents Weather Stations Pressure Air Temp Water Temp Dewpoint Dewpoint Depression Visibility Wind Speed Wind Dir Waves Ship Positions

Celebrity Infinity

Last reported at 2015-Jul-30 10:34 UTC. Time now 2015-Aug-01 01:30 UTC.
Position N 58°19' W 134°59'.

Length 294 m; draft 8.3 m.

Type: Passenger vessel. MMSI: 249048000.

Date/timePositionNaut miles runAvg speedWind from/ knotsBaromVisibWave heightAir tempDewpointWater temp
2015-Jul-30 10:34N 58°19' W 134°59'1211.8
2015-Jul-30 09:34N 58°09' W 135°13'1515.1
2015-Jul-30 08:34N 58°16' W 135°38'1814.8
2015-Jul-30 07:21N 58°16' W 136°12'6 0.2
2015-Jul-29 07:33N 58°20' W 136°05'1918.8
2015-Jul-29 06:33N 58°14' W 135°31'6 0.6
2015-Jul-28 21:33N 58°09' W 135°28'1111.4
2015-Jul-28 20:33N 58°07' W 135°07'1514.4
2015-Jul-28 19:31N 57°54' W 134°51'47315.3
2015-Jul-27 12:29N 51°02' W 128°11'1617.4
2015-Jul-27 11:33N 50°58' W 127°46'1918.5
2015-Jul-27 10:33N 50°48' W 127°21'1919.2
2015-Jul-27 09:33N 50°41' W 126°53'6416.1
2015-Jul-27 05:33N 50°13' W 125°22'1413.4
2015-Jul-27 04:32N 50°01' W 125°12'2019.9
2015-Jul-27 03:33N 49°47' W 124°51'2121.4
2015-Jul-27 02:34N 49°30' W 124°30'2120.8
2015-Jul-27 01:34N 49°23' W 123°60'2120.9
2015-Jul-27 00:34N 49°19' W 123°28'1514.6
2015-Jul-26 23:33N 49°18' W 123°06'1 0.6
2015-Jul-26 22:32N 49°17' W 123°07'0 0.0
2015-Jul-26 21:31N 49°17' W 123°07'0 0.0
2015-Jul-26 20:31N 49°17' W 123°07'0 0.0
2015-Jul-26 19:33N 49°17' W 123°07'0 0.0
2015-Jul-26 18:33N 49°17' W 123°07'0 0.0
2015-Jul-26 17:33N 49°17' W 123°07'0 0.0
2015-Jul-26 16:32N 49°17' W 123°07'0 0.0
2015-Jul-26 15:32N 49°17' W 123°07'0 0.0
2015-Jul-26 14:31N 49°17' W 123°07'0 0.0
2015-Jul-26 13:33N 49°17' W 123°07'6 5.9
2015-Jul-26 12:33N 49°18' W 123°16'1211.7
2015-Jul-26 11:33N 49°19' W 123°33'1212.0
2015-Jul-26 10:33N 49°20' W 123°52'1212.4
2015-Jul-26 09:33N 49°23' W 124°10'1312.5
2015-Jul-26 08:33N 49°29' W 124°28'1312.7
2015-Jul-26 07:33N 49°38' W 124°40'1312.6
2015-Jul-26 06:32N 49°47' W 124°54'1212.5
2015-Jul-26 05:33N 49°56' W 125°07'1413.2
2015-Jul-26 04:31N 50°07' W 125°20'6615.0
2015-Jul-26 00:06N 50°39' W 126°50'1118.4
2015-Jul-25 23:32N 50°44' W 127°05'1717.9
2015-Jul-25 22:34N 50°51' W 127°31'1919.2
2015-Jul-25 21:33N 51°02' W 127°55'47111.8
2015-Jul-24 05:34N 58°02' W 134°03'40 2.0
2015-Jul-23 10:00N 58°06' W 135°18'711.4 090 / 131007.210.8 1.514.0 13.6
2015-Jul-23 09:20N 58°12' W 135°26'1316.7
2015-Jul-23 08:33N 58°18' W 135°48'9 0.3
2015-Jul-22 07:33N 58°20' W 136°04'2020.0
2015-Jul-22 06:33N 58°14' W 135°28'5 0.5
2015-Jul-21 21:07N 58°10' W 135°22'49817.2
2015-Jul-20 16:12N 51°01' W 128°05'1218.3
2015-Jul-20 15:33N 50°59' W 127°46'1818.4
2015-Jul-20 14:34N 50°49' W 127°23'2120.8
2015-Jul-20 13:32N 50°40' W 126°51'  

Dump ship's entire track history